Time;durP1;ratioP1;P1;durP2;ratioP2;P2;SDS_P1;SDS_P2;PMS_P1;PMS_P2;Temp;Humidity;BMP_temperature;BMP_pressure;BME280_temperature;BME280_humidity;BME280_pressure;Samples;Min_cycle;Max_cycle;Signal;HPM_P1;HPM_P2
2020/12/08 00:01:10;;;;;;;22.15;8.55;;;;;;;-9.42;75.73;101944.98;1722085;81;21149;-47
2020/12/08 00:03:38;;;;;;;16.82;6.62;;;;;;;-9.45;75.94;101936.36;1747941;81;21159;-46
2020/12/08 00:06:05;;;;;;;16.80;7.55;;;;;;;-9.44;76.04;101940.66;1751034;81;21129;-47
2020/12/08 00:08:33;;;;;;;27.40;9.70;;;;;;;-9.43;76.15;101932.14;1729032;81;21141;-46
2020/12/08 00:11:01;;;;;;;17.95;7.08;;;;;;;-9.47;75.95;101934.17;1748506;81;21180;-47
2020/12/08 00:13:29;;;;;;;21.07;7.95;;;;;;;-9.51;76.01;101937.94;1748557;81;21105;-46
2020/12/08 00:15:56;;;;;;;20.72;8.75;;;;;;;-9.53;76.02;101932.30;1779540;79;21750;-46
2020/12/08 00:18:24;;;;;;;21.48;8.28;;;;;;;-9.56;76.08;101918.16;1779449;80;21119;-46
2020/12/08 00:20:52;;;;;;;25.85;10.35;;;;;;;-9.59;76.04;101921.91;1779558;80;21122;-46
2020/12/08 00:23:19;;;;;;;20.43;8.25;;;;;;;-9.62;76.23;101915.00;1779635;80;23037;-46
2020/12/08 00:25:47;;;;;;;20.15;7.75;;;;;;;-9.59;76.34;101924.05;1779459;80;21130;-46
2020/12/08 00:28:14;;;;;;;19.82;7.85;;;;;;;-9.62;76.52;101906.45;1779552;80;21107;-46
2020/12/08 00:30:42;;;;;;;20.30;8.90;;;;;;;-9.67;76.62;101912.33;1779605;80;22158;-46
2020/12/08 00:33:09;;;;;;;18.50;8.25;;;;;;;-9.69;76.74;101909.26;1779473;80;21116;-46
2020/12/08 00:35:37;;;;;;;19.02;7.03;;;;;;;-9.68;76.79;101905.87;1766007;78;21365;-46
2020/12/08 00:38:05;;;;;;;23.75;9.73;;;;;;;-9.68;76.91;101906.75;1779679;80;21167;-46
2020/12/08 00:40:33;;;;;;;17.30;7.50;;;;;;;-9.71;77.09;101897.70;1779609;79;21126;-46
2020/12/08 00:43:01;;;;;;;23.45;9.45;;;;;;;-9.70;77.27;101894.71;1779368;79;21116;-46
2020/12/08 00:45:30;;;;;;;23.73;9.65;;;;;;;-9.66;77.49;101902.53;1779555;80;21134;-46
2020/12/08 00:47:59;;;;;;;19.87;7.30;;;;;;;-9.59;77.53;101892.02;1742794;81;22787;-46
2020/12/08 00:50:27;;;;;;;18.52;7.90;;;;;;;-9.52;77.39;101894.30;1752803;79;21647;-47
2020/12/08 00:52:55;;;;;;;19.62;8.63;;;;;;;-9.49;77.00;101898.22;1774616;80;21583;-47
2020/12/08 00:55:23;;;;;;;18.10;7.37;;;;;;;-9.48;76.72;101892.27;1778972;79;21132;-46
2020/12/08 00:57:51;;;;;;;20.08;8.08;;;;;;;-9.45;76.70;101885.94;1765798;80;21103;-47
2020/12/08 01:00:20;;;;;;;16.48;7.90;;;;;;;-9.44;76.65;101892.80;1776660;79;21962;-46
2020/12/08 01:02:48;;;;;;;18.45;7.67;;;;;;;-9.42;76.46;101892.42;1766704;80;21174;-46
2020/12/08 01:05:17;;;;;;;23.02;8.70;;;;;;;-9.42;76.53;101890.29;1779437;80;21108;-46
2020/12/08 01:07:45;;;;;;;22.50;8.75;;;;;;;-9.38;76.55;101904.49;1779555;79;21122;-47
2020/12/08 01:10:15;;;;;;;20.17;8.18;;;;;;;-9.34;76.39;101893.48;1778609;80;21112;-46
2020/12/08 01:12:43;;;;;;;16.40;7.78;;;;;;;-9.29;76.25;101889.77;1779573;79;23093;-46
2020/12/08 01:15:11;;;;;;;18.50;7.12;;;;;;;-9.29;76.03;101896.17;1779468;79;21127;-46
2020/12/08 01:17:39;;;;;;;20.17;7.55;;;;;;;-9.30;75.72;101884.58;1779432;79;21126;-47
2020/12/08 01:20:07;;;;;;;16.62;7.55;;;;;;;-9.34;75.83;101887.07;1779533;80;21495;-46
2020/12/08 01:22:35;;;;;;;20.80;8.58;;;;;;;-9.33;76.02;101884.11;1779605;80;21116;-47
2020/12/08 01:25:03;;;;;;;18.55;8.28;;;;;;;-9.31;76.05;101881.16;1779634;80;21496;-45
2020/12/08 01:27:34;;;;;;;20.82;7.78;;;;;;;-9.30;75.85;101882.02;1749149;80;21046;-45
2020/12/08 01:30:05;;;;;;;17.83;8.00;;;;;;;-9.32;75.77;101884.95;1729401;80;21025;-46
2020/12/08 01:32:35;;;;;;;;;;;;;;;-9.32;75.96;101881.11;1782086;80;21111;-46
2020/12/08 01:35:03;;;;;;;22.35;9.10;;;;;;;-9.35;76.14;101880.20;1779599;80;20261;-46
2020/12/08 01:37:31;;;;;;;22.32;8.85;;;;;;;-9.35;76.28;101875.08;1779802;79;21367;-45
2020/12/08 01:39:59;;;;;;;14.65;7.12;;;;;;;-9.31;76.20;101877.31;1779491;80;21628;-45
2020/12/08 01:42:28;;;;;;;24.10;8.88;;;;;;;-9.26;76.20;101878.30;1779545;80;21134;-45
2020/12/08 01:44:57;;;;;;;16.73;7.12;;;;;;;-9.27;76.10;101879.53;1744148;80;21148;-46
2020/12/08 01:47:25;;;;;;;21.00;9.65;;;;;;;-9.28;76.20;101877.39;1762959;80;21547;-46
2020/12/08 01:49:52;;;;;;;25.70;9.60;;;;;;;-9.29;76.18;101891.45;1790500;79;21186;-47
2020/12/08 01:52:20;;;;;;;27.45;9.65;;;;;;;-9.30;76.31;101882.02;1779872;80;21150;-46
2020/12/08 01:54:53;;;;;;;19.40;7.67;;;;;;;-9.26;76.23;101877.41;1757126;80;20993;-46
2020/12/08 01:57:23;;;;;;;17.87;6.55;;;;;;;-9.23;76.05;101881.33;1759788;80;21154;-46
2020/12/08 01:59:51;;;;;;;24.47;9.65;;;;;;;-9.26;76.04;101877.41;1749020;80;22135;-46
2020/12/08 02:02:21;;;;;;;20.25;8.13;;;;;;;-9.23;76.08;101871.08;1771314;80;21201;-46
2020/12/08 02:04:50;;;;;;;19.37;8.85;;;;;;;-9.23;75.86;101879.66;1761861;80;21929;-45
2020/12/08 02:07:17;;;;;;;14.38;7.53;;;;;;;-9.23;75.98;101880.05;1779554;80;21140;-46
2020/12/08 02:09:45;;;;;;;15.05;7.17;;;;;;;-9.23;75.91;101880.94;1749188;80;21600;-45
2020/12/08 02:12:15;;;;;;;32.25;11.38;;;;;;;-9.19;76.19;101878.02;1749174;80;21128;-46
2020/12/08 02:14:43;;;;;;;22.70;10.18;;;;;;;-9.17;76.17;101877.63;1779822;80;23131;-47
2020/12/08 02:17:11;;;;;;;23.65;9.40;;;;;;;-9.13;76.10;101885.85;1779479;80;21140;-47
2020/12/08 02:19:38;;;;;;;18.95;8.90;;;;;;;-9.11;75.92;101878.21;1779630;80;21160;-47
2020/12/08 02:22:06;;;;;;;21.75;9.55;;;;;;;-9.14;75.61;101880.70;1779606;80;20990;-47
2020/12/08 02:24:34;;;;;;;20.35;7.97;;;;;;;-9.11;75.90;101884.63;1779784;80;21116;-46
2020/12/08 02:27:02;;;;;;;22.13;8.50;;;;;;;-9.11;75.61;101884.19;1749322;80;22671;-46
2020/12/08 02:29:30;;;;;;;21.23;9.08;;;;;;;-9.14;75.72;101879.42;1779540;80;21143;-46
2020/12/08 02:31:58;;;;;;;22.48;9.38;;;;;;;-9.12;75.82;101879.05;1779589;79;21162;-46
2020/12/08 02:34:25;;;;;;;24.70;10.30;;;;;;;-9.10;75.93;101871.82;1749070;80;20997;-45
2020/12/08 02:36:57;;;;;;;22.17;8.63;;;;;;;-9.07;75.99;101873.17;1753866;80;21113;-46
2020/12/08 02:39:26;;;;;;;25.80;7.70;;;;;;;-9.03;75.86;101875.81;1721719;82;21680;-46
2020/12/08 02:41:54;;;;;;;25.10;9.08;;;;;;;-9.04;75.74;101868.55;1739247;81;21176;-45
2020/12/08 02:44:22;;;;;;;20.62;9.20;;;;;;;-9.05;75.86;101872.79;1760884;81;22073;-45
2020/12/08 02:46:50;;;;;;;20.92;8.33;;;;;;;-9.01;76.02;101876.71;1760583;81;21140;-45
2020/12/08 02:49:19;;;;;;;24.07;8.53;;;;;;;-8.99;75.97;101873.33;1760744;81;21112;-45
2020/12/08 02:51:46;;;;;;;20.02;8.30;;;;;;;-8.98;75.83;101884.48;1730441;81;21366;-45
2020/12/08 02:54:14;;;;;;;19.95;7.62;;;;;;;-9.01;75.90;101880.16;1760488;81;21062;-45
2020/12/08 02:56:42;;;;;;;23.15;8.70;;;;;;;-9.00;76.04;101876.73;1760557;81;21136;-45
2020/12/08 02:59:12;;;;;;;19.92;8.88;;;;;;;-8.99;76.00;101872.05;1759121;81;21596;-46
2020/12/08 03:01:41;;;;;;;20.02;9.08;;;;;;;-8.98;75.99;101867.80;1730405;81;21172;-46
2020/12/08 03:04:08;;;;;;;19.80;8.70;;;;;;;-8.97;76.08;101868.25;1760607;81;21164;-46
2020/12/08 03:06:42;;;;;;;24.82;8.73;;;;;;;-8.94;75.94;101858.91;1760621;81;21026;-46
2020/12/08 03:09:10;;;;;;;18.90;8.13;;;;;;;-8.96;75.82;101867.42;1753152;80;21650;-46
2020/12/08 03:11:38;;;;;;;16.25;7.17;;;;;;;-8.97;76.08;101867.82;1774542;80;21146;-46
2020/12/08 03:14:16;;;;;;;29.50;10.95;;;;;;;-8.91;76.11;101860.70;1843845;76;28221;-46
2020/12/08 03:16:44;;;;;;;27.30;10.93;;;;;;;-8.94;76.12;101855.50;1782608;78;21184;-46
2020/12/08 03:19:11;;;;;;;23.95;8.85;;;;;;;-8.94;76.29;101867.05;1791155;77;22453;-46
2020/12/08 03:21:40;;;;;;;28.87;10.20;;;;;;;-8.94;76.38;101865.76;1831417;77;21042;-46
2020/12/08 03:24:09;;;;;;;23.15;9.83;;;;;;;-8.94;76.45;101872.17;1803687;77;21053;-46
2020/12/08 03:26:37;;;;;;;20.95;8.38;;;;;;;-8.98;76.59;101869.09;1803902;77;21837;-45
2020/12/08 03:29:05;;;;;;;24.52;10.88;;;;;;;-8.96;76.70;101864.86;1808063;77;22483;-46
2020/12/08 03:31:33;;;;;;;25.65;9.50;;;;;;;-8.93;76.75;101868.77;1809020;77;21372;-46
2020/12/08 03:34:02;;;;;;;25.40;11.75;;;;;;;-8.93;76.68;101857.23;1807361;77;21719;-46
2020/12/08 03:36:32;;;;;;;27.07;10.23;;;;;;;-8.92;76.89;101862.81;1799069;77;21243;-46
2020/12/08 03:39:01;;;;;;;26.80;10.48;;;;;;;-8.89;77.03;101856.47;1779687;78;21207;-46
2020/12/08 03:41:31;;;;;;;27.00;10.25;;;;;;;-8.88;77.00;101861.16;1797929;78;21215;-47
2020/12/08 03:44:01;;;;;;;22.22;9.15;;;;;;;-8.90;76.84;101856.02;1774887;78;22578;-47
2020/12/08 03:46:29;;;;;;;23.75;9.60;;;;;;;-8.96;76.84;101853.31;1777958;78;21189;-47
2020/12/08 03:48:57;;;;;;;21.12;9.43;;;;;;;-8.95;77.21;101867.87;1788030;78;21656;-47
2020/12/08 03:51:26;;;;;;;22.62;10.35;;;;;;;-8.96;77.16;101852.03;1784481;78;21668;-46
2020/12/08 03:53:55;;;;;;;27.52;11.33;;;;;;;-8.94;77.09;101855.06;1803487;78;21694;-46
2020/12/08 03:56:25;;;;;;;31.80;11.05;;;;;;;-8.95;77.10;101852.05;1784292;78;22375;-47
2020/12/08 03:58:54;;;;;;;26.82;10.00;;;;;;;-8.94;77.19;101847.36;1793469;78;21196;-45
2020/12/08 04:01:23;;;;;;;24.92;8.65;;;;;;;-8.93;77.25;101849.53;1762254;78;22356;-45
2020/12/08 04:03:51;;;;;;;23.30;9.60;;;;;;;-8.90;77.49;101845.75;1767269;78;21192;-46
2020/12/08 04:06:19;;;;;;;22.42;11.20;;;;;;;-8.86;77.63;101850.52;1789879;78;22106;-46
2020/12/08 04:08:48;;;;;;;25.75;10.50;;;;;;;-8.86;77.53;101847.55;1796951;78;21204;-46
2020/12/08 04:11:17;;;;;;;21.07;9.75;;;;;;;-8.85;77.54;101841.59;1759518;79;21748;-46
2020/12/08 04:13:46;;;;;;;21.40;8.63;;;;;;;-8.83;77.55;101848.90;1775505;79;21209;-46
2020/12/08 04:16:14;;;;;;;17.52;6.50;;;;;;;-8.80;77.51;101844.23;1756391;78;21561;-46
2020/12/08 04:18:43;;;;;;;22.48;10.50;;;;;;;-8.82;77.29;101842.05;1773910;79;20990;-46
2020/12/08 04:21:11;;;;;;;22.95;10.82;;;;;;;-8.84;77.43;101852.70;1785023;78;22582;-46
2020/12/08 04:23:38;;;;;;;23.85;11.15;;;;;;;-8.90;77.22;101848.31;1808620;78;20963;-46
2020/12/08 04:26:11;;;;;;;26.77;10.98;;;;;;;-8.93;77.31;101841.83;1805115;79;21013;-46
2020/12/08 04:28:43;;;;;;;27.98;10.90;;;;;;;-8.93;77.43;101843.11;1765491;79;21605;-46
2020/12/08 04:31:16;;;;;;;25.10;10.50;;;;;;;-8.98;77.50;101832.73;1807220;79;21605;-46
2020/12/08 04:33:44;;;;;;;20.50;8.08;;;;;;;-9.00;77.64;101838.68;1784733;79;22152;-46
2020/12/08 04:36:17;;;;;;;21.55;8.75;;;;;;;-9.00;77.83;101835.68;1787528;79;21137;-46
2020/12/08 04:38:45;;;;;;;25.45;8.10;;;;;;;-9.00;77.85;101856.64;1800294;79;20987;-49
2020/12/08 04:41:20;;;;;;;25.05;10.82;;;;;;;-9.04;78.05;101836.48;1802801;79;21946;-46
2020/12/08 04:43:48;;;;;;;29.87;11.12;;;;;;;-9.03;78.02;101835.64;1797851;79;22154;-46
2020/12/08 04:46:22;;;;;;;20.77;7.75;;;;;;;-9.03;78.01;101834.36;1780450;79;22335;-46
2020/12/08 04:48:50;;;;;;;29.37;11.68;;;;;;;-8.98;78.06;101826.32;1780262;79;21140;-47
2020/12/08 04:51:18;;;;;;;18.95;8.70;;;;;;;-9.01;77.93;101832.70;1780069;79;20988;-47
2020/12/08 04:53:53;;;;;;;14.35;6.90;;;;;;;-9.02;78.02;101833.53;1807878;79;21101;-46
2020/12/08 04:56:21;;;;;;;22.95;9.25;;;;;;;-9.01;78.21;101833.10;1790381;79;20995;-46
2020/12/08 04:58:48;;;;;;;23.15;10.15;;;;;;;-9.07;78.07;101837.26;1787493;79;23109;-46
2020/12/08 05:01:25;;;;;;;22.10;10.25;;;;;;;-9.09;78.26;101842.77;1806229;79;21156;-46
2020/12/08 05:04:00;;;;;;;25.97;10.58;;;;;;;-9.07;78.19;101842.39;1802788;79;22031;-46
2020/12/08 05:06:28;;;;;;;24.23;9.68;;;;;;;-9.05;78.15;101833.47;1808461;79;21073;-46
2020/12/08 05:09:07;;;;;;;28.05;10.72;;;;;;;-9.02;78.28;101833.93;1787831;79;22050;-46
2020/12/08 05:11:35;;;;;;;24.57;9.43;;;;;;;-8.99;78.32;101836.13;1780200;79;22711;-46
2020/12/08 05:14:06;;;;;;;21.27;9.10;;;;;;;-8.96;78.13;101837.48;1801100;78;21014;-46
2020/12/08 05:16:34;;;;;;;16.70;8.53;;;;;;;-8.94;77.92;101832.41;1794938;78;21187;-46
2020/12/08 05:19:09;;;;;;;28.12;10.15;;;;;;;-8.96;77.82;101837.48;1796980;78;21516;-46
2020/12/08 05:21:52;;;;;;;20.17;9.30;;;;;;;-8.96;77.75;101850.75;1787787;78;21124;-47
2020/12/08 05:24:32;;;;;;;22.93;9.83;;;;;;;-8.99;77.62;101845.11;1808760;78;22521;-46
2020/12/08 05:27:03;;;;;;;19.75;8.13;;;;;;;-9.04;77.44;101839.05;1809053;78;21551;-47
2020/12/08 05:29:33;;;;;;;33.92;11.28;;;;;;;-9.07;77.55;101847.52;1805087;78;22147;-46
2020/12/08 05:32:22;;;;;;;31.37;10.68;;;;;;;-9.10;77.89;101830.78;1786687;78;21136;-46
2020/12/08 05:34:54;;;;;;;26.80;10.30;;;;;;;-9.06;78.02;101835.14;1808389;78;21148;-46
2020/12/08 05:37:21;;;;;;;;;;;;;;;-9.06;77.60;101827.88;1811430;78;21082;-46
2020/12/08 05:39:49;;;;;;;25.08;11.08;;;;;;;-9.10;77.79;101851.73;1781620;78;20442;-46
2020/12/08 05:42:20;;;;;;;19.12;8.53;;;;;;;-9.16;77.86;101834.48;1735612;81;21999;-46
2020/12/08 05:44:50;;;;;;;26.33;9.83;;;;;;;-9.20;77.92;101838.69;1767703;80;21883;-46
2020/12/08 05:47:19;;;;;;;21.40;9.23;;;;;;;-9.23;77.84;101839.02;1745912;81;21157;-45
2020/12/08 05:50:01;;;;;;;30.30;9.90;;;;;;;-9.27;77.95;101834.25;1746042;81;21262;-46
2020/12/08 05:52:34;;;;;;;24.20;8.93;;;;;;;-9.26;78.02;101837.66;1746150;81;21014;-46
2020/12/08 05:55:07;;;;;;;28.42;11.10;;;;;;;-9.28;77.83;101844.45;1732225;81;22007;-46
2020/12/08 05:57:36;;;;;;;23.95;9.55;;;;;;;-9.31;77.92;101843.98;1746109;81;21143;-46
2020/12/08 06:00:07;;;;;;;26.15;10.90;;;;;;;-9.35;77.72;101839.61;1744986;81;21567;-46
2020/12/08 06:02:37;;;;;;;27.48;11.57;;;;;;;-9.36;78.20;101830.19;1744944;81;21201;-47
2020/12/08 06:05:06;;;;;;;35.25;12.40;;;;;;;-9.35;78.32;101845.59;1746022;81;21978;-47
2020/12/08 06:07:34;;;;;;;21.42;9.30;;;;;;;-9.32;78.61;101843.94;1744899;81;21397;-46
2020/12/08 06:10:09;;;;;;;23.52;10.35;;;;;;;-9.30;78.52;101844.44;1745355;81;21778;-46
2020/12/08 06:12:38;;;;;;;25.40;8.60;;;;;;;-9.27;78.83;101851.32;1737202;81;20935;-46
2020/12/08 06:15:25;;;;;;;25.68;10.20;;;;;;;-9.25;78.88;101844.13;1721395;81;21369;-46
2020/12/08 06:17:53;;;;;;;22.80;9.88;;;;;;;-9.21;79.00;101856.19;1736272;81;21019;-46
2020/12/08 06:20:20;;;;;;;26.70;11.18;;;;;;;-9.22;78.75;101844.20;1725343;81;21870;-46
2020/12/08 06:22:58;;;;;;;31.52;12.53;;;;;;;-9.25;78.81;101848.38;1744007;81;21971;-46
2020/12/08 06:25:26;;;;;;;29.12;11.97;;;;;;;-9.28;79.12;101848.30;1743038;81;21470;-46
2020/12/08 06:28:00;;;;;;;30.92;10.45;;;;;;;-9.29;79.46;101841.44;1743299;81;21359;-46
2020/12/08 06:30:28;;;;;;;24.82;11.90;;;;;;;-9.28;79.69;101838.93;1741037;81;21046;-46
2020/12/08 06:33:00;;;;;;;29.23;10.90;;;;;;;-9.23;79.72;101840.30;1739523;81;21145;-46
2020/12/08 06:35:33;;;;;;;30.08;11.40;;;;;;;-9.20;79.62;101846.78;1742697;81;21621;-46
2020/12/08 06:38:02;;;;;;;29.87;11.90;;;;;;;-9.22;79.62;101838.19;1736375;81;22099;-46
2020/12/08 06:40:30;;;;;;;28.30;11.83;;;;;;;-9.23;80.13;101839.91;1740335;81;21352;-46
2020/12/08 06:42:57;;;;;;;21.75;8.85;;;;;;;-9.18;80.47;101841.28;1739048;81;21001;-46
2020/12/08 06:45:25;;;;;;;32.98;12.28;;;;;;;-9.17;79.75;101843.44;1736639;81;21575;-46
2020/12/08 06:47:52;;;;;;;26.15;10.65;;;;;;;-9.19;80.21;101844.67;1738509;81;21007;-46
2020/12/08 06:50:26;;;;;;;35.08;15.38;;;;;;;-9.16;80.22;101842.61;1740488;81;21143;-47
2020/12/08 06:53:03;;;;;;;28.40;11.08;;;;;;;-9.15;80.39;101843.91;1739999;81;21355;-46
2020/12/08 06:55:44;;;;;;;29.95;10.20;;;;;;;-9.09;80.79;101852.19;1739658;81;21014;-46
2020/12/08 06:58:12;;;;;;;28.67;10.68;;;;;;;-9.04;80.52;101857.00;1745279;81;22007;-46
2020/12/08 07:00:41;;;;;;;30.55;12.23;;;;;;;-8.99;80.26;101859.22;1739116;81;21010;-46
2020/12/08 07:03:09;;;;;;;26.40;10.68;;;;;;;-9.01;80.74;101849.77;1737003;81;20990;-45
2020/12/08 07:05:36;;;;;;;31.02;13.28;;;;;;;-9.02;80.61;101853.17;1737928;81;21359;-45
2020/12/08 07:08:06;;;;;;;20.90;9.53;;;;;;;-9.02;81.23;101848.05;1724657;81;22195;-46
2020/12/08 07:10:39;;;;;;;23.32;9.70;;;;;;;-8.98;80.97;101848.56;1737925;81;20998;-46
2020/12/08 07:13:14;;;;;;;35.75;12.90;;;;;;;-9.00;80.59;101843.37;1739610;81;20995;-46
2020/12/08 07:15:43;;;;;;;34.08;14.15;;;;;;;-8.98;81.11;101838.30;1714523;83;21640;-46
2020/12/08 07:18:11;;;;;;;21.85;10.48;;;;;;;-8.92;81.09;101832.02;1705666;83;21391;-46
2020/12/08 07:20:40;;;;;;;30.35;13.25;;;;;;;-8.91;80.63;101833.75;1708991;83;21188;-46
2020/12/08 07:23:10;;;;;;;29.52;13.45;;;;;;;-8.90;80.55;101827.79;1695786;83;21010;-46
2020/12/08 07:25:38;;;;;;;25.70;11.78;;;;;;;-8.88;80.65;101832.53;1706112;83;21121;-46
2020/12/08 07:28:07;;;;;;;27.35;11.60;;;;;;;-8.86;80.44;101830.88;1708992;82;21124;-46
2020/12/08 07:30:35;;;;;;;33.08;12.00;;;;;;;-8.81;80.75;101824.14;1713445;83;21677;-46
2020/12/08 07:33:11;;;;;;;34.25;14.70;;;;;;;-8.76;80.39;101825.50;1707360;82;21256;-46
2020/12/08 07:35:44;;;;;;;32.05;13.98;;;;;;;-8.70;80.44;101829.91;1702638;83;22000;-45
2020/12/08 07:38:12;;;;;;;29.45;12.00;;;;;;;-8.71;80.35;101837.17;1702690;83;21698;-46
2020/12/08 07:40:41;;;;;;;36.53;12.68;;;;;;;-8.71;80.48;101841.02;1713460;83;21125;-45
2020/12/08 07:43:10;;;;;;;27.85;11.50;;;;;;;-8.74;80.13;101836.67;1716972;83;21445;-45
2020/12/08 07:45:43;;;;;;;41.60;15.60;;;;;;;-8.77;80.46;101849.03;1720843;83;21215;-46
2020/12/08 07:48:17;;;;;;;35.48;14.07;;;;;;;-8.80;81.12;101836.14;1740905;81;21157;-46
2020/12/08 07:50:45;;;;;;;30.60;12.43;;;;;;;-8.76;82.00;101839.22;1687419;81;21114;-46
2020/12/08 07:53:15;;;;;;;28.70;10.98;;;;;;;-8.69;82.11;101841.48;1739341;81;21751;-46
2020/12/08 07:55:44;;;;;;;28.10;12.10;;;;;;;-8.65;81.89;101836.86;1740669;81;21321;-46
2020/12/08 07:58:12;;;;;;;27.67;12.90;;;;;;;-8.63;82.26;101835.62;1737931;81;21159;-46
2020/12/08 08:00:40;;;;;;;34.67;14.63;;;;;;;-8.63;82.19;101833.06;1734782;82;21123;-46
2020/12/08 08:03:08;;;;;;;30.15;13.03;;;;;;;-8.66;82.12;101833.00;1740432;81;21175;-46
2020/12/08 08:05:36;;;;;;;39.85;15.80;;;;;;;-8.68;81.77;101833.38;1725568;81;21131;-46
2020/12/08 08:08:04;;;;;;;25.27;11.53;;;;;;;-8.68;82.06;101826.97;1733223;81;23106;-46
2020/12/08 08:10:32;;;;;;;25.02;9.18;;;;;;;-8.68;81.12;101829.53;1745836;81;21139;-46
2020/12/08 08:13:00;;;;;;;35.55;13.98;;;;;;;-8.68;81.20;101845.78;1739341;82;21167;-46
2020/12/08 08:15:28;;;;;;;33.18;11.48;;;;;;;-8.70;81.28;101839.75;1764561;80;21995;-46
2020/12/08 08:17:56;;;;;;;31.93;13.55;;;;;;;-8.70;81.45;101826.06;1753541;81;21128;-46
2020/12/08 08:20:24;;;;;;;33.38;12.23;;;;;;;-8.69;81.47;101829.94;1753348;80;21511;-46
2020/12/08 08:22:54;;;;;;;24.95;10.85;;;;;;;-8.63;81.59;101833.91;1752657;81;21140;-46
2020/12/08 08:25:22;;;;;;;29.65;13.65;;;;;;;-8.60;81.17;101836.98;1749518;81;21125;-46
2020/12/08 08:27:50;;;;;;;36.70;12.90;;;;;;;-8.59;81.11;101825.88;1728451;81;21156;-46
2020/12/08 08:30:19;;;;;;;30.05;12.43;;;;;;;-8.52;80.91;101810.16;1749527;81;21617;-46
2020/12/08 08:32:47;;;;;;;34.25;12.20;;;;;;;-8.50;80.17;101820.92;1727346;81;22645;-46
2020/12/08 08:35:15;;;;;;;26.48;12.40;;;;;;;-8.48;80.01;101820.47;1738597;81;21129;-46
2020/12/08 08:37:43;;;;;;;29.70;13.38;;;;;;;-8.47;80.55;101824.77;1739966;81;21009;-46
2020/12/08 08:40:11;;;;;;;26.87;10.58;;;;;;;-8.41;80.77;101816.74;1737594;80;21130;-46
2020/12/08 08:42:39;;;;;;;37.00;15.78;;;;;;;-8.31;80.12;101812.23;1750336;80;21150;-47
2020/12/08 08:45:08;;;;;;;28.02;11.05;;;;;;;-8.25;80.23;101814.07;1755185;79;22760;-47
2020/12/08 08:47:37;;;;;;;35.83;14.43;;;;;;;-8.20;80.17;101822.30;1738659;81;20990;-46
2020/12/08 08:50:05;;;;;;;35.68;15.35;;;;;;;-8.17;81.30;101809.51;1746017;81;21136;-46
2020/12/08 08:52:33;;;;;;;27.98;12.47;;;;;;;-8.16;80.87;101812.52;1735517;81;21675;-46
2020/12/08 08:55:00;;;;;;;23.25;11.95;;;;;;;-8.16;81.26;101802.25;1750463;81;21131;-46
2020/12/08 08:57:28;;;;;;;31.85;11.60;;;;;;;-8.09;81.00;101801.95;1753814;81;21785;-46
2020/12/08 08:59:55;;;;;;;24.15;12.40;;;;;;;-8.00;81.76;101807.66;1753478;81;21692;-46
2020/12/08 09:02:23;;;;;;;22.70;9.93;;;;;;;-7.87;81.53;101799.73;1752977;81;21133;-46
2020/12/08 09:04:53;;;;;;;24.20;10.53;;;;;;;-7.81;79.36;101802.84;1752141;81;21108;-46
2020/12/08 09:07:21;;;;;;;28.47;12.82;;;;;;;-7.78;80.67;101800.33;1753863;81;22032;-47
2020/12/08 09:09:49;;;;;;;25.90;11.38;;;;;;;-7.68;80.33;101800.93;1752164;81;22012;-46
2020/12/08 09:12:17;;;;;;;30.52;12.10;;;;;;;-7.61;79.47;101794.16;1753725;81;21136;-46
2020/12/08 09:14:45;;;;;;;21.52;9.28;;;;;;;-7.58;78.85;101804.09;1751020;81;21162;-47
2020/12/08 09:17:12;;;;;;;30.23;11.15;;;;;;;-7.62;77.08;101808.74;1729585;81;21117;-46
2020/12/08 09:19:40;;;;;;;19.40;8.98;;;;;;;-7.70;77.06;101802.61;1740826;81;21128;-46
2020/12/08 09:22:09;;;;;;;25.52;10.18;;;;;;;-7.73;76.93;101793.56;1721118;81;23036;-46
2020/12/08 09:24:37;;;;;;;24.77;10.10;;;;;;;-7.72;77.06;101800.43;1743576;81;22009;-46
2020/12/08 09:27:06;;;;;;;25.57;10.45;;;;;;;-7.67;76.66;101809.09;1744746;81;21125;-46
2020/12/08 09:29:34;;;;;;;26.62;10.55;;;;;;;-7.61;76.50;101793.76;1744926;80;21651;-46
2020/12/08 09:32:02;;;;;;;21.52;10.50;;;;;;;-7.60;76.17;101800.63;1741556;81;21128;-47
2020/12/08 09:34:30;;;;;;;23.32;10.10;;;;;;;-7.58;76.91;101786.09;1744645;81;21453;-46
2020/12/08 09:36:57;;;;;;;27.15;11.08;;;;;;;-7.47;76.05;101789.25;1744502;81;21002;-47
2020/12/08 09:39:25;;;;;;;25.52;11.03;;;;;;;-7.42;76.04;101792.77;1744516;81;21133;-47
2020/12/08 09:41:52;;;;;;;25.27;10.93;;;;;;;-7.37;75.92;101786.38;1744952;81;21141;-47
2020/12/08 09:44:21;;;;;;;27.80;11.70;;;;;;;-7.36;75.41;101782.53;1744856;81;21145;-47
2020/12/08 09:46:48;;;;;;;27.75;9.48;;;;;;;-7.33;75.49;101793.30;1744581;81;22909;-47
2020/12/08 09:49:16;;;;;;;28.10;12.68;;;;;;;-7.37;74.75;101793.66;1744970;81;20967;-47
2020/12/08 09:51:44;;;;;;;29.05;12.43;;;;;;;-7.38;75.52;101789.36;1744960;81;21010;-47
2020/12/08 09:54:11;;;;;;;27.98;12.10;;;;;;;-7.37;75.06;101797.52;1744772;81;21853;-46
2020/12/08 09:56:39;;;;;;;26.20;11.08;;;;;;;-7.36;75.12;101787.68;1749278;80;21131;-47
2020/12/08 09:59:07;;;;;;;27.80;11.05;;;;;;;-7.33;75.08;101797.16;1720151;81;21633;-46
2020/12/08 10:01:36;;;;;;;17.37;8.78;;;;;;;-7.37;75.24;101789.80;1719316;82;21176;-47
2020/12/08 10:04:03;;;;;;;26.35;12.58;;;;;;;-7.31;75.31;101795.05;1725239;81;21580;-47
2020/12/08 10:06:31;;;;;;;27.15;10.23;;;;;;;-7.26;75.29;101793.84;1765297;80;21141;-47
2020/12/08 10:08:58;;;;;;;32.58;12.30;;;;;;;-7.26;74.78;101793.41;1742901;81;21156;-48
2020/12/08 10:11:26;;;;;;;24.05;10.40;;;;;;;-7.28;74.97;101798.95;1742669;81;21487;-47
2020/12/08 10:13:54;;;;;;;22.60;9.58;;;;;;;-7.24;75.22;101808.00;1741918;81;22057;-47
2020/12/08 10:16:23;;;;;;;25.17;11.10;;;;;;;-7.24;75.02;101803.73;1741430;81;20994;-46
2020/12/08 10:18:52;;;;;;;20.72;8.55;;;;;;;-7.23;75.15;101793.00;1740912;81;21158;-47
2020/12/08 10:21:22;;;;;;;27.50;11.45;;;;;;;-7.20;75.51;101798.20;1738646;81;22169;-47
2020/12/08 10:23:50;;;;;;;23.02;9.15;;;;;;;-7.18;75.08;101789.67;1742529;81;21191;-47
2020/12/08 10:26:19;;;;;;;27.55;10.85;;;;;;;-7.13;75.50;101789.72;1742409;81;21156;-47
2020/12/08 10:28:47;;;;;;;30.30;9.53;;;;;;;-7.07;75.60;101785.09;1723910;81;22101;-47
2020/12/08 10:31:19;;;;;;;26.80;10.70;;;;;;;-7.06;75.08;101784.25;1732835;80;21149;-47
2020/12/08 10:33:47;;;;;;;27.25;9.85;;;;;;;-7.05;75.44;101784.26;1741085;81;21948;-46
2020/12/08 10:36:14;;;;;;;28.57;11.88;;;;;;;-7.04;75.47;101791.14;1742844;81;21370;-47
2020/12/08 10:38:42;;;;;;;30.57;11.28;;;;;;;-7.09;76.15;101783.77;1737372;81;21254;-47
2020/12/08 10:41:10;;;;;;;28.30;12.53;;;;;;;-7.13;76.24;101785.86;1742278;81;21122;-47
2020/12/08 10:43:38;;;;;;;28.50;11.88;;;;;;;-7.17;77.36;101782.80;1743033;81;22166;-47
2020/12/08 10:46:06;;;;;;;23.35;11.00;;;;;;;-7.21;77.76;101772.91;1724202;81;21109;-46
2020/12/08 10:48:33;;;;;;;25.75;9.25;;;;;;;-7.15;78.80;101775.97;1739047;81;21371;-46
2020/12/08 10:51:01;;;;;;;38.13;13.78;;;;;;;-7.10;77.95;101780.75;1739983;81;22011;-46
2020/12/08 10:53:29;;;;;;;31.62;11.25;;;;;;;-7.08;78.16;101771.35;1741480;81;21493;-47
2020/12/08 10:55:56;;;;;;;22.98;9.28;;;;;;;-6.99;77.03;101770.62;1742022;80;21161;-47
2020/12/08 10:58:23;;;;;;;26.42;11.53;;;;;;;-7.01;76.89;101771.88;1740367;81;21108;-47
2020/12/08 11:00:51;;;;;;;25.12;9.30;;;;;;;-7.05;76.95;101770.11;1741783;81;21443;-47
2020/12/08 11:03:20;;;;;;;30.48;13.20;;;;;;;-7.05;76.99;101775.25;1741163;81;21665;-47
2020/12/08 11:05:47;;;;;;;24.52;10.20;;;;;;;-7.07;77.39;101774.37;1742614;81;21121;-47
2020/12/08 11:08:16;;;;;;;27.00;12.13;;;;;;;-7.06;77.20;101770.95;1725340;81;21149;-47
2020/12/08 11:10:44;;;;;;;32.33;14.73;;;;;;;-7.06;77.70;101776.09;1739640;81;22128;-46
2020/12/08 11:13:13;;;;;;;25.32;11.95;;;;;;;-7.02;77.63;101776.58;1742389;81;22161;-46
2020/12/08 11:15:42;;;;;;;29.27;11.70;;;;;;;-6.93;77.71;101772.40;1735702;80;22118;-46
2020/12/08 11:18:10;;;;;;;31.25;14.78;;;;;;;-6.87;77.32;101773.33;1735627;81;22141;-46
2020/12/08 11:20:38;;;;;;;34.90;14.28;;;;;;;-6.85;77.14;101769.06;1740172;81;21121;-46
2020/12/08 11:23:06;;;;;;;31.02;13.65;;;;;;;-6.82;77.48;101766.97;1741996;81;21124;-46